Time;durP1;ratioP1;P1;durP2;ratioP2;P2;SDS_P1;SDS_P2;PMS_P1;PMS_P2;Temp;Humidity;BMP_temperature;BMP_pressure;BME280_temperature;BME280_humidity;BME280_pressure;Samples;Min_cycle;Max_cycle;Signal;HPM_P1;HPM_P2
2023/07/10 00:01:03;;;;;;;;;5.00;5.00;;;;;26.21;45.61;101672.22;4966677;28;45302;-63
2023/07/10 00:03:29;;;;;;;;;5.00;5.00;;;;;26.32;45.04;101686.97;4957840;28;45314;-64
2023/07/10 00:05:56;;;;;;;;;7.75;6.25;;;;;26.26;44.85;101680.06;4958884;28;45562;-64
2023/07/10 00:08:22;;;;;;;;;7.75;7.75;;;;;26.22;43.35;101687.41;4959487;28;46612;-64
2023/07/10 00:10:49;;;;;;;;;13.50;13.50;;;;;26.17;43.79;101685.88;4958743;28;46507;-65
2023/07/10 00:13:15;;;;;;;;;24.67;21.33;;;;;26.02;44.03;101685.66;4956923;28;45551;-65
2023/07/10 00:15:41;;;;;;;;;32.33;26.67;;;;;25.91;44.32;101671.91;4957641;28;45959;-64
2023/07/10 00:18:15;;;;;;;;;35.00;33.33;;;;;25.92;43.94;101683.50;4958666;28;45475;-64
2023/07/10 00:20:41;;;;;;;;;36.33;30.33;;;;;25.89;43.73;101691.69;4958635;28;45503;-64
2023/07/10 00:23:07;;;;;;;;;42.67;32.33;;;;;25.96;44.32;101693.13;4958624;28;45409;-65
2023/07/10 00:25:33;;;;;;;;;51.33;36.33;;;;;25.99;44.03;101690.31;4960717;28;45511;-65
2023/07/10 00:27:59;;;;;;;;;38.67;34.33;;;;;26.10;43.21;101695.16;4959170;28;45309;-64
2023/07/10 00:30:25;;;;;;;;;40.00;33.67;;;;;26.12;43.81;101699.50;4960007;28;45330;-66
2023/07/10 00:32:53;;;;;;;;;30.67;20.33;;;;;26.15;43.46;101699.38;4959622;28;46254;-65
2023/07/10 00:35:24;;;;;;;;;48.67;32.00;;;;;26.14;43.16;101694.09;4959438;28;45299;-66
2023/07/10 00:38:01;;;;;;;;;38.67;31.33;;;;;26.04;43.38;101699.03;4959571;28;46084;-65
2023/07/10 00:40:30;;;;;;;;;31.00;24.33;;;;;25.80;44.09;101695.66;4959615;28;45496;-65
2023/07/10 00:43:10;;;;;;;;;33.33;24.67;;;;;25.75;43.64;101701.22;4958434;28;46248;-64
2023/07/10 00:45:36;;;;;;;;;36.67;28.33;;;;;25.56;43.89;101689.63;4958557;28;45398;-65
2023/07/10 00:48:23;;;;;;;;;31.67;25.67;;;;;25.43;44.13;101688.41;4959339;28;45441;-64
2023/07/10 00:50:50;;;;;;;;;36.67;22.00;;;;;25.38;44.66;101684.13;4958853;28;45547;-65
2023/07/10 00:53:35;;;;;;;;;27.33;20.33;;;;;25.54;45.01;101691.50;4958051;28;46603;-64
2023/07/10 00:56:03;;;;;;;;;30.00;24.33;;;;;25.61;44.75;101684.91;4958347;28;45493;-64
2023/07/10 00:58:39;;;;;;;;;42.67;31.67;;;;;25.55;44.57;101696.78;4958353;28;45528;-64
2023/07/10 01:01:11;;;;;;;;;44.00;35.67;;;;;25.49;44.64;101696.19;4952919;28;45848;-66
2023/07/10 01:03:39;;;;;;;;;55.67;39.67;;;;;25.40;44.50;101684.06;4939174;28;46235;-65
2023/07/10 01:06:14;;;;;;;;;51.33;40.00;;;;;25.24;44.56;101685.69;4939166;28;45495;-64
2023/07/10 01:08:43;;;;;;;;;47.00;38.67;;;;;25.12;44.70;101681.72;4939652;28;45480;-65
2023/07/10 01:11:12;;;;;;;;;36.33;31.67;;;;;24.83;44.85;101667.78;4939059;28;45821;-65
2023/07/10 01:13:42;;;;;;;;;28.33;23.00;;;;;24.95;44.71;101683.31;4938837;28;45817;-64
2023/07/10 01:16:09;;;;;;;;;23.33;19.33;;;;;24.87;44.60;101676.56;4939663;28;45318;-64
2023/07/10 01:18:36;;;;;;;;;19.33;16.00;;;;;24.89;44.95;101678.25;4940255;28;45462;-65
2023/07/10 01:21:07;;;;;;;;;13.00;10.50;;;;;24.96;44.81;101671.69;4939712;28;45411;-65
2023/07/10 01:23:33;;;;;;;;;16.33;12.33;;;;;25.07;44.90;101673.88;4939070;28;46399;-64
2023/07/10 01:26:01;;;;;;;;;13.00;11.00;;;;;25.18;43.88;101670.75;4940340;28;45666;-63
2023/07/10 01:28:28;;;;;;;;;12.25;9.50;;;;;25.22;44.19;101677.72;4955450;28;45351;-64
2023/07/10 01:30:56;;;;;;;;;7.00;7.00;;;;;25.20;43.79;101668.00;4939385;28;45443;-64
2023/07/10 01:33:27;;;;;;;;;11.00;8.50;;;;;25.17;44.11;101679.69;4939832;28;46241;-66
2023/07/10 01:35:57;;;;;;;;;7.50;7.00;;;;;25.09;43.55;101677.34;4939456;28;45439;-64
2023/07/10 01:38:35;;;;;;;;;1.25;1.25;;;;;24.90;44.25;101681.78;4938990;28;45404;-66
2023/07/10 01:41:11;;;;;;;;;4.25;4.25;;;;;24.96;44.51;101690.44;4939334;28;45335;-65
2023/07/10 01:43:37;;;;;;;;;6.50;6.25;;;;;25.00;44.63;101692.97;4938796;28;45470;-65
2023/07/10 01:46:16;;;;;;;;;5.50;4.75;;;;;25.03;44.02;101696.38;4938694;28;45460;-63
2023/07/10 01:48:42;;;;;;;;;6.00;4.00;;;;;25.02;43.95;101691.97;4940548;28;45425;-64
2023/07/10 01:51:08;;;;;;;;;5.75;4.00;;;;;25.09;43.96;101697.94;4938496;28;45472;-65
2023/07/10 01:53:34;;;;;;;;;5.25;4.00;;;;;25.10;44.18;101691.63;4938732;28;46287;-66
2023/07/10 01:56:00;;;;;;;;;4.00;4.00;;;;;24.98;44.40;101679.63;4939406;28;45444;-66
2023/07/10 01:58:26;;;;;;;;;4.00;4.00;;;;;25.05;44.35;101696.31;4974210;28;45425;-66
2023/07/10 02:00:51;;;;;;;;;6.75;5.25;;;;;24.99;43.91;101692.09;4959935;28;45376;-64
2023/07/10 02:03:17;;;;;;;;;8.00;6.75;;;;;24.88;44.51;101676.47;4958957;28;46335;-65
2023/07/10 02:05:42;;;;;;;;;4.75;4.75;;;;;24.93;44.48;101687.88;4958033;28;45432;-64
2023/07/10 02:08:08;;;;;;;;;5.25;4.75;;;;;24.91;44.16;101689.72;4958182;28;45325;-65
2023/07/10 02:10:33;;;;;;;;;8.00;5.00;;;;;24.86;44.47;101677.47;4959461;28;45472;-65
2023/07/10 02:12:59;;;;;;;;;6.00;5.25;;;;;24.91;44.71;101695.09;4957904;28;45573;-65
2023/07/10 02:15:25;;;;;;;;;6.25;6.00;;;;;24.90;44.25;101698.72;4958176;28;45301;-65
2023/07/10 02:17:51;;;;;;;;;6.25;5.25;;;;;24.82;44.48;101684.78;4957320;28;45425;-63
2023/07/10 02:20:17;;;;;;;;;7.25;7.00;;;;;24.87;44.80;101681.94;4958080;28;45353;-65
2023/07/10 02:22:42;;;;;;;;;5.75;5.00;;;;;24.92;44.75;101694.19;4957602;28;46287;-64
2023/07/10 02:25:08;;;;;;;;;8.50;6.25;;;;;24.96;45.19;101690.44;4956742;28;45492;-65
2023/07/10 02:27:34;;;;;;;;;8.00;5.75;;;;;24.94;45.19;101699.47;4957687;28;45518;-66
2023/07/10 02:29:59;;;;;;;;;7.75;7.25;;;;;24.97;45.52;101702.00;4958664;28;45526;-63
2023/07/10 02:32:25;;;;;;;;;6.25;5.75;;;;;24.92;45.45;101702.22;4957701;28;46176;-64
2023/07/10 02:34:50;;;;;;;;;4.50;4.50;;;;;24.89;46.47;101699.69;4957593;28;45514;-64
2023/07/10 02:37:16;;;;;;;;;5.75;5.75;;;;;24.80;47.19;101704.56;4959187;28;45424;-64
2023/07/10 02:39:41;;;;;;;;;7.75;5.00;;;;;24.77;47.65;101708.22;4959216;28;45586;-65
2023/07/10 02:42:07;;;;;;;;;7.25;5.00;;;;;24.76;47.91;101701.97;4958930;28;46068;-66
2023/07/10 02:44:33;;;;;;;;;6.00;6.00;;;;;24.70;48.28;101704.03;4958004;28;45824;-64
2023/07/10 02:46:58;;;;;;;;;5.50;5.50;;;;;24.70;48.97;101698.69;4957676;28;45219;-64
2023/07/10 02:49:24;;;;;;;;;6.00;5.00;;;;;24.76;48.77;101711.84;4957579;28;45510;-64
2023/07/10 02:51:49;;;;;;;;;6.00;5.00;;;;;24.73;49.36;101707.47;4957600;28;46187;-63
2023/07/10 02:54:15;;;;;;;;;6.00;5.50;;;;;24.75;49.25;101710.97;4956844;28;45330;-64
2023/07/10 02:56:40;;;;;;;;;7.25;5.25;;;;;24.73;49.27;101714.66;4957176;28;45519;-64
2023/07/10 02:59:06;;;;;;;;;8.00;5.75;;;;;24.71;49.25;101705.81;4956039;28;45521;-64
2023/07/10 03:01:32;;;;;;;;;6.50;5.50;;;;;24.75;49.07;101718.16;4957210;28;46118;-63
2023/07/10 03:03:57;;;;;;;;;5.50;5.50;;;;;24.71;49.28;101714.69;4957031;28;45360;-64
2023/07/10 03:06:24;;;;;;;;;6.25;5.00;;;;;24.72;49.83;101728.97;4958523;28;45399;-65
2023/07/10 03:08:49;;;;;;;;;5.00;5.00;;;;;24.64;49.86;101718.56;4958505;28;45543;-64
2023/07/10 03:11:16;;;;;;;;;7.75;7.75;;;;;24.59;50.28;101717.91;4956899;28;45415;-64
2023/07/10 03:13:42;;;;;;;;;4.50;4.50;;;;;24.50;49.89;101719.13;4956604;28;45513;-67
2023/07/10 03:16:13;;;;;;;;;5.75;5.75;;;;;24.50;50.63;101719.13;4957209;28;45380;-66
2023/07/10 03:18:39;;;;;;;;;6.50;5.00;;;;;24.33;50.93;101709.06;4957015;28;45659;-66
2023/07/10 03:21:06;;;;;;;;;5.00;4.50;;;;;24.39;50.43;101725.81;4957177;28;46075;-66
2023/07/10 03:23:32;;;;;;;;;9.00;5.00;;;;;24.33;50.78;101721.59;4957890;28;45380;-65
2023/07/10 03:25:57;;;;;;;;;7.25;5.25;;;;;24.21;51.02;101724.78;4957199;28;45463;-66
2023/07/10 03:28:23;;;;;;;;;10.75;6.50;;;;;24.13;50.96;101727.72;4956421;28;45481;-65
2023/07/10 03:30:49;;;;;;;;;5.75;5.00;;;;;24.10;51.17;101730.53;4960422;28;45330;-66
2023/07/10 03:33:16;;;;;;;;;8.25;6.25;;;;;24.07;51.07;101733.34;4957402;28;45457;-64
2023/07/10 03:35:43;;;;;;;;;6.00;5.50;;;;;24.04;50.65;101712.91;4946773;28;45361;-66
2023/07/10 03:38:08;;;;;;;;;8.00;6.67;;;;;24.05;51.45;101720.00;4953542;28;45645;-66
2023/07/10 03:40:35;;;;;;;;;7.00;6.50;;;;;24.02;51.22;101735.31;4940848;28;46172;-66
2023/07/10 03:43:00;;;;;;;;;9.00;6.75;;;;;23.99;51.69;101722.94;4940003;28;45418;-66
2023/07/10 03:45:26;;;;;;;;;6.50;6.50;;;;;24.01;51.20;101741.59;4954698;28;45349;-65
2023/07/10 03:47:51;;;;;;;;;6.25;6.25;;;;;23.99;51.54;101738.09;4959256;28;45648;-66
2023/07/10 03:50:17;;;;;;;;;6.67;5.67;;;;;23.92;51.45;101727.63;4959620;28;46101;-64
2023/07/10 03:52:43;;;;;;;;;10.50;6.25;;;;;23.91;51.57;101733.91;4959895;28;45471;-65
2023/07/10 03:55:08;;;;;;;;;4.75;4.75;;;;;23.84;51.93;101736.88;4959836;28;45407;-66
2023/07/10 03:57:35;;;;;;;;;6.00;6.00;;;;;23.91;51.73;101739.25;4960872;28;45470;-65
2023/07/10 04:00:01;;;;;;;;;7.75;6.25;;;;;23.74;51.47;101716.75;4958511;28;47741;-65
2023/07/10 04:02:26;;;;;;;;;5.75;5.75;;;;;23.71;51.41;101694.50;4974282;28;47420;-67
2023/07/10 04:04:52;;;;;;;;;4.50;4.50;;;;;23.92;51.50;101721.41;4960264;28;45382;-64
2023/07/10 04:07:18;;;;;;;;;5.75;4.50;;;;;24.06;51.52;101752.97;4960063;28;45461;-64
2023/07/10 04:09:43;;;;;;;;;7.00;6.33;;;;;24.15;51.04;101752.63;4960083;28;46674;-64
2023/07/10 04:12:09;;;;;;;;;4.75;4.75;;;;;24.24;50.93;101754.94;4961117;28;45620;-65
2023/07/10 04:14:37;;;;;;;;;5.75;4.75;;;;;24.23;51.13;101755.03;4958564;28;45552;-64
2023/07/10 04:17:06;;;;;;;;;7.00;5.00;;;;;24.22;51.17;101750.59;4960273;28;45460;-64
2023/07/10 04:19:31;;;;;;;;;6.25;5.00;;;;;24.21;51.22;101756.88;4960872;28;46097;-64
2023/07/10 04:22:03;;;;;;;;;6.00;6.00;;;;;24.16;50.83;101751.72;4960565;28;45453;-65
2023/07/10 04:24:28;;;;;;;;;7.50;6.25;;;;;24.20;50.87;101765.84;4974264;28;45741;-67
2023/07/10 04:26:54;;;;;;;;;4.50;4.00;;;;;24.24;51.03;101767.47;4959888;28;45341;-64
2023/07/10 04:29:19;;;;;;;;;5.25;5.00;;;;;24.36;50.57;101771.47;4959121;28;46297;-65
2023/07/10 04:31:45;;;;;;;;;5.00;4.00;;;;;24.35;50.71;101773.28;4961365;28;45262;-66
2023/07/10 04:34:11;;;;;;;;;6.00;6.00;;;;;24.36;50.57;101777.69;4960306;28;45386;-66
2023/07/10 04:36:37;;;;;;;;;7.00;5.00;;;;;24.21;51.28;101771.13;4959466;28;45416;-66
2023/07/10 04:39:02;;;;;;;;;5.75;4.75;;;;;24.18;51.15;101765.00;4958913;28;46240;-66
2023/07/10 04:41:28;;;;;;;;;6.00;5.00;;;;;24.12;51.01;101766.13;4959140;28;45269;-67
2023/07/10 04:43:53;;;;;;;;;6.00;5.00;;;;;24.20;51.42;101772.06;4959394;28;45486;-65
2023/07/10 04:46:21;;;;;;;;;6.50;6.50;;;;;24.16;51.20;101762.41;4959501;28;45400;-65
2023/07/10 04:48:46;;;;;;;;;4.00;4.00;;;;;;;;4958693;28;45436;-65
2023/07/10 04:51:14;;;;;;;;;4.00;3.50;;;;;24.35;51.02;101781.31;4958800;28;45301;-66
2023/07/10 04:53:39;;;;;;;;;7.25;4.25;;;;;24.39;50.63;101774.03;4953502;28;46024;-65
2023/07/10 04:56:08;;;;;;;;;6.00;4.25;;;;;24.45;50.72;101787.19;4946772;28;45465;-66
2023/07/10 04:58:54;;;;;;;;;6.00;5.25;;;;;24.50;50.44;101787.91;4959793;28;45801;-65
2023/07/10 05:01:25;;;;;;;;;5.00;4.00;;;;;24.38;51.10;101781.19;4954456;28;45540;-65
2023/07/10 05:03:51;;;;;;;;;5.25;4.50;;;;;24.43;50.98;101787.22;4939553;28;45441;-66
2023/07/10 05:06:17;;;;;;;;;5.50;5.00;;;;;24.42;51.04;101782.81;4939808;28;45366;-65
2023/07/10 05:08:42;;;;;;;;;2.75;2.75;;;;;24.59;50.75;101789.34;4939660;28;45263;-66
2023/07/10 05:11:08;;;;;;;;;4.25;3.00;;;;;24.74;50.25;101788.72;4939208;28;45477;-65
2023/07/10 05:13:33;;;;;;;;;5.00;4.25;;;;;24.82;49.70;101786.59;4939334;28;45296;-66
2023/07/10 05:16:00;;;;;;;;;5.00;5.00;;;;;24.89;49.90;101784.53;4939595;28;45456;-65
2023/07/10 05:18:26;;;;;;;;;4.25;3.50;;;;;24.94;49.68;101778.06;4939517;28;45515;-65
2023/07/10 05:20:53;;;;;;;;;3.50;3.50;;;;;24.98;49.64;101778.78;4939021;28;45464;-65
2023/07/10 05:23:19;;;;;;;;;4.00;4.00;;;;;25.08;49.18;101781.94;4939211;28;45445;-66
2023/07/10 05:26:04;;;;;;;;;6.50;4.00;;;;;25.04;48.50;101772.31;4940457;28;45262;-67
2023/07/10 05:28:30;;;;;;;;;2.25;2.25;;;;;25.15;48.53;101776.28;4954324;28;46235;-66
2023/07/10 05:30:58;;;;;;;;;2.75;2.75;;;;;25.25;48.42;101791.97;4940484;28;45425;-64
2023/07/10 05:33:25;;;;;;;;;4.50;4.00;;;;;25.25;48.41;101786.63;4940715;28;45428;-65
2023/07/10 05:35:52;;;;;;;;;3.75;3.75;;;;;25.31;48.04;101789.91;4939485;28;45496;-65
2023/07/10 05:38:21;;;;;;;;;4.75;4.75;;;;;25.41;48.03;101785.03;4938873;28;46130;-66
2023/07/10 05:40:46;;;;;;;;;5.75;4.50;;;;;25.52;47.55;101784.56;4938993;28;45367;-65
2023/07/10 05:43:12;;;;;;;;;5.75;4.25;;;;;25.50;47.45;101768.53;4939085;28;45388;-67
2023/07/10 05:45:37;;;;;;;;;5.75;4.75;;;;;25.58;47.07;101768.22;4939305;28;45223;-66
2023/07/10 05:48:03;;;;;;;;;5.00;3.00;;;;;25.70;46.99;101789.13;4938746;28;45358;-65
2023/07/10 05:50:29;;;;;;;;;5.50;4.00;;;;;25.72;46.78;101772.94;4938895;28;45538;-67
2023/07/10 05:52:54;;;;;;;;;6.25;4.00;;;;;25.73;46.72;101772.88;4939186;28;45425;-69
2023/07/10 05:55:22;;;;;;;;;4.00;4.00;;;;;25.78;46.34;101778.03;4940447;28;45547;-66
2023/07/10 05:57:47;;;;;;;;;6.25;6.00;;;;;25.91;46.35;101790.00;4939476;28;46102;-66
2023/07/10 06:00:13;;;;;;;;;9.25;6.25;;;;;25.90;46.23;101771.28;4937123;28;45888;-66
2023/07/10 06:02:39;;;;;;;;;2.00;2.00;;;;;25.96;46.34;101776.34;4939031;28;45457;-67
2023/07/10 06:05:05;;;;;;;;;5.00;5.00;;;;;26.07;46.00;101776.72;4937418;28;45485;-66
2023/07/10 06:07:30;;;;;;;;;6.50;6.00;;;;;26.19;45.48;101791.38;4939806;28;45345;-64
2023/07/10 06:09:56;;;;;;;;;4.75;4.25;;;;;26.22;45.18;101776.03;4939498;28;45532;-65
2023/07/10 06:12:21;;;;;;;;;7.75;6.25;;;;;26.15;45.14;101771.88;4938564;28;45460;-64
2023/07/10 06:14:47;;;;;;;;;57.67;46.33;;;;;26.22;45.67;101781.38;4938591;28;45655;-65
2023/07/10 06:17:12;;;;;;;;;47.67;38.00;;;;;26.28;45.56;101788.28;4936806;28;47074;-64
2023/07/10 06:19:38;;;;;;;;;25.33;22.67;;;;;26.20;45.28;101760.94;4945311;28;45948;-65
2023/07/10 06:22:09;;;;;;;;;20.00;14.67;;;;;26.43;45.08;101779.50;4952495;28;45508;-64
2023/07/10 06:24:34;;;;;;;;;10.25;8.75;;;;;26.53;44.83;101784.41;4952927;28;45370;-66
2023/07/10 06:27:01;;;;;;;;;6.00;6.00;;;;;26.56;44.37;101787.84;4956184;28;45479;-66
2023/07/10 06:29:27;;;;;;;;;4.50;4.50;;;;;26.50;44.32;101769.31;4957587;28;45403;-67
2023/07/10 06:31:52;;;;;;;;;5.75;4.75;;;;;26.68;43.97;101788.22;4957374;28;45423;-66
2023/07/10 06:34:18;;;;;;;;;7.75;3.75;;;;;26.71;44.16;101783.53;4957715;28;45344;-67
2023/07/10 06:36:43;;;;;;;;;5.25;5.00;;;;;26.73;43.71;101781.66;4957646;28;46189;-64
2023/07/10 06:39:09;;;;;;;;;4.00;3.25;;;;;26.74;44.18;101782.53;4957792;28;45605;-64
2023/07/10 06:41:34;;;;;;;;;3.50;3.50;;;;;26.81;43.48;101789.34;4958211;28;45322;-65
2023/07/10 06:44:00;;;;;;;;;3.25;3.25;;;;;26.85;43.52;101783.72;4958287;28;45455;-64
2023/07/10 06:46:26;;;;;;;;;5.25;3.75;;;;;26.88;43.05;101784.53;4957205;28;46422;-64
2023/07/10 06:48:51;;;;;;;;;4.75;4.00;;;;;26.76;43.25;101777.94;4955927;28;45447;-65
2023/07/10 06:51:17;;;;;;;;;3.50;3.50;;;;;26.75;43.58;101784.28;4957574;28;45386;-65
2023/07/10 06:53:43;;;;;;;;;4.75;4.00;;;;;26.89;43.50;101783.59;4957452;28;45572;-66
2023/07/10 06:56:09;;;;;;;;;5.25;5.25;;;;;26.97;43.03;101786.75;4956999;28;45515;-65
2023/07/10 06:58:35;;;;;;;;;5.50;4.00;;;;;27.01;43.26;101782.97;4957315;28;45571;-66
2023/07/10 07:01:02;;;;;;;;;4.75;3.25;;;;;27.04;43.13;101782.81;4957134;28;45926;-63
2023/07/10 07:03:29;;;;;;;;;6.00;4.00;;;;;27.12;43.14;101785.09;4958976;28;45576;-67
2023/07/10 07:05:54;;;;;;;;;3.75;3.75;;;;;27.15;43.03;101777.75;4960050;28;46558;-64
2023/07/10 07:08:21;;;;;;;;;4.50;4.50;;;;;27.17;43.09;101786.63;4960463;28;45450;-65
2023/07/10 07:10:49;;;;;;;;;6.00;4.75;;;;;27.14;42.93;101777.84;4960513;28;45396;-65
2023/07/10 07:13:15;;;;;;;;;4.25;4.00;;;;;27.05;42.31;101781.84;4960627;28;45447;-63
2023/07/10 07:15:41;;;;;;;;;4.50;4.50;;;;;27.08;43.22;101796.03;4960514;28;45328;-65
2023/07/10 07:18:06;;;;;;;;;4.75;3.25;;;;;27.19;42.64;101786.53;4960510;28;45286;-65
2023/07/10 07:20:33;;;;;;;;;10.50;10.50;;;;;27.27;42.72;101781.69;4960644;28;45706;-65
2023/07/10 07:22:59;;;;;;;;;7.00;7.00;;;;;27.25;42.22;101757.53;4960337;28;45431;-65
2023/07/10 07:25:29;;;;;;;;;6.00;5.25;;;;;27.43;41.80;101777.25;4957972;28;45465;-64
2023/07/10 07:27:59;;;;;;;;;6.25;6.25;;;;;27.52;42.00;101785.75;4947763;28;45433;-66
2023/07/10 07:30:25;;;;;;;;;6.75;5.00;;;;;27.58;42.70;101769.31;4960227;28;45354;-65
2023/07/10 07:32:50;;;;;;;;;4.25;3.25;;;;;27.62;41.18;101774.44;4960461;28;45612;-64
2023/07/10 07:35:16;;;;;;;;;5.50;4.50;;;;;27.58;40.76;101758.53;4960201;28;45355;-64
2023/07/10 07:37:41;;;;;;;;;6.75;4.25;;;;;27.49;41.15;101779.59;4959490;28;45437;-65
2023/07/10 07:40:09;;;;;;;;;5.75;4.75;;;;;27.50;41.39;101777.75;4961881;28;45304;-65
2023/07/10 07:42:35;;;;;;;;;4.75;3.00;;;;;27.53;41.66;101763.31;4961199;28;45433;-66
2023/07/10 07:45:02;;;;;;;;;3.00;3.00;;;;;27.59;40.44;101762.97;4960127;28;45398;-65
2023/07/10 07:47:28;;;;;;;;;4.80;4.00;;;;;27.54;40.44;101746.19;4958909;28;45245;-65
2023/07/10 07:49:53;;;;;;;;;4.50;3.00;;;;;27.69;39.95;101769.59;4954194;28;46028;-65
2023/07/10 07:52:19;;;;;;;;;3.75;3.75;;;;;27.60;39.30;101765.59;4947304;28;45500;-68
2023/07/10 07:54:44;;;;;;;;;2.00;2.00;;;;;27.64;39.37;101758.19;4940352;28;46036;-66
2023/07/10 07:57:10;;;;;;;;;3.25;1.75;;;;;27.50;39.60;101737.41;4949351;28;45793;-65
2023/07/10 07:59:35;;;;;;;;;1.50;1.50;;;;;27.73;39.24;101755.00;4959873;28;45491;-64
2023/07/10 08:02:01;;;;;;;;;2.75;2.75;;;;;27.60;38.49;101759.34;4959933;28;45326;-64
2023/07/10 08:04:27;;;;;;;;;2.00;2.00;;;;;27.28;38.21;101761.88;4957717;28;45435;-64
2023/07/10 08:06:52;;;;;;;;;4.75;2.00;;;;;27.30;39.41;101757.31;4948872;28;45596;-64
2023/07/10 08:09:18;;;;;;;;;1.00;1.00;;;;;27.42;38.35;101745.88;4940482;28;45395;-65
2023/07/10 08:11:43;;;;;;;;;3.50;2.00;;;;;27.53;38.93;101758.78;4940296;28;45408;-65
2023/07/10 08:14:09;;;;;;;;;1.75;1.75;;;;;27.59;38.39;101747.69;4940707;28;45538;-66
2023/07/10 08:16:35;;;;;;;;;4.00;3.00;;;;;27.56;38.06;101737.09;4940489;28;45442;-67
2023/07/10 08:19:01;;;;;;;;;3.60;2.40;;;;;27.65;38.02;101755.44;4939031;28;46095;-66
2023/07/10 08:21:27;;;;;;;;;2.50;2.25;;;;;27.62;37.90;101746.63;4940228;28;45399;-63
2023/07/10 08:23:53;;;;;;;;;3.00;3.00;;;;;27.74;39.35;101753.19;4940904;28;46469;-64
2023/07/10 08:26:19;;;;;;;;;3.00;3.00;;;;;27.84;38.44;101754.47;4940337;28;45429;-65
2023/07/10 08:28:44;;;;;;;;;1.00;1.00;;;;;27.89;37.14;101749.72;4940394;28;45456;-65
2023/07/10 08:31:10;;;;;;;;;3.00;2.00;;;;;28.01;37.27;101758.94;4941680;28;45508;-65
2023/07/10 08:33:36;;;;;;;;;4.00;1.50;;;;;28.02;37.43;101755.28;4941139;28;45438;-66
2023/07/10 08:36:04;;;;;;;;;1.25;1.25;;;;;28.07;38.23;101748.69;4941567;28;45200;-65
2023/07/10 08:38:32;;;;;;;;;1.20;1.20;;;;;28.14;38.70;101743.81;4942018;28;45302;-67
2023/07/10 08:41:02;;;;;;;;;2.00;2.00;;;;;28.06;36.54;101724.53;4943945;28;45351;-75
2023/07/10 08:43:51;;;;;;;;;4.50;2.00;;;;;28.19;36.59;101751.63;4941585;28;47802;-71
2023/07/10 08:46:57;;;;;;;;;2.40;2.40;;;;;28.23;36.69;101748.69;4940199;28;45457;-65
2023/07/10 08:49:34;;;;;;;;;4.40;2.20;;;;;28.30;36.34;101743.81;4940329;28;45278;-67
2023/07/10 08:52:11;;;;;;;;;4.25;2.00;;;;;28.17;35.84;101750.88;4940723;28;45442;-76
2023/07/10 08:54:36;;;;;;;;;2.25;2.25;;;;;28.00;36.55;101744.59;4940145;28;46172;-71
2023/07/10 08:57:11;;;;;;;;;4.25;1.50;;;;;28.01;37.18;101748.16;4948705;28;45368;-74
2023/07/10 08:59:42;;;;;;;;;3.00;1.40;;;;;28.09;36.51;101744.06;4959418;28;45456;-72
2023/07/10 09:02:24;;;;;;;;;1.00;1.00;;;;;27.91;36.19;101745.13;4959675;28;45317;-71
2023/07/10 09:04:51;;;;;;;;;2.25;2.25;;;;;27.88;36.10;101745.25;4959170;28;45432;-70
2023/07/10 09:07:18;;;;;;;;;1.60;1.60;;;;;27.77;35.72;101732.38;4958335;28;45409;-72
2023/07/10 09:09:59;;;;;;;;;4.00;2.00;;;;;27.77;35.79;101744.97;4958590;28;45389;-70
2023/07/10 09:12:41;;;;;;;;;2.50;2.50;;;;;27.72;36.84;101745.22;4957789;28;45479;-73
2023/07/10 09:15:13;;;;;;;;;2.50;2.50;;;;;27.86;35.68;101737.28;4959100;28;45341;-75
2023/07/10 09:18:03;;;;;;;;;5.80;3.00;;;;;28.01;35.60;101745.47;4959523;28;45272;-72
2023/07/10 09:20:28;;;;;;;;;1.20;1.20;;;;;27.97;35.98;101746.59;4959056;28;45774;-74
2023/07/10 09:23:06;;;;;;;;;4.00;2.00;;;;;27.72;36.07;101721.00;4957866;28;45483;-74
2023/07/10 09:25:36;;;;;;;;;1.50;1.50;;;;;27.77;36.00;101747.66;4959165;28;46124;-74
2023/07/10 09:28:02;;;;;;;;;4.00;2.40;;;;;27.72;36.26;101753.28;4960091;28;45368;-75
2023/07/10 09:30:34;;;;;;;;;3.50;3.50;;;;;27.70;36.47;101742.59;4961873;28;45185;-75
2023/07/10 09:33:09;;;;;;;;;2.75;2.75;;;;;27.87;35.33;101747.09;4960813;28;45639;-78
2023/07/10 09:35:39;;;;;;;;;2.00;2.00;;;;;27.81;34.36;101739.34;4974840;28;47756;-79
2023/07/10 09:38:05;;;;;;;;;2.00;2.00;;;;;27.88;34.95;101745.25;4961065;28;45807;-78
2023/07/10 09:40:49;;;;;;;;;1.00;1.00;;;;;27.77;34.96;101718.91;4960605;28;45366;-77
2023/07/10 09:43:22;;;;;;;;;3.25;2.00;;;;;28.05;34.65;101738.97;4960079;28;45358;-77
2023/07/10 09:45:57;;;;;;;;;3.50;2.00;;;;;27.92;33.90;101699.25;4975269;28;46343;-74
2023/07/10 09:48:31;;;;;;;;;1.00;1.00;;;;;28.25;34.09;101740.53;4959873;28;45400;-78
2023/07/10 09:51:02;;;;;;;;;2.60;1.40;;;;;27.42;34.05;101627.53;4974715;28;45333;-77
2023/07/10 09:53:33;;;;;;;;;2.50;2.25;;;;;28.26;34.40;101747.63;4959443;28;45568;-75
2023/07/10 09:55:59;;;;;;;;;3.00;2.25;;;;;28.36;33.95;101734.50;4959769;28;46445;-76
2023/07/10 09:58:26;;;;;;;;;3.00;3.00;;;;;28.40;33.88;101726.16;4958909;28;45249;-78
2023/07/10 10:00:52;;;;;;;;;2.80;2.00;;;;;27.76;33.11;101605.94;4958902;28;45436;-76
2023/07/10 10:03:33;;;;;;;;;2.50;2.50;;;;;28.25;33.44;101676.75;4974626;28;45323;-74
2023/07/10 10:06:01;;;;;;;;;1.00;1.00;;;;;28.24;32.94;101656.16;4960289;28;46636;-76
2023/07/10 10:08:30;;;;;;;;;2.40;2.00;;;;;28.84;32.54;101738.06;4961164;28;45459;-75
2023/07/10 10:11:08;;;;;;;;;2.20;1.20;;;;;28.87;31.97;101737.88;4961180;28;45417;-77
2023/07/10 10:13:47;;;;;;;;;3.00;2.00;;;;;28.63;32.90;101695.22;4961085;28;45901;-73
2023/07/10 10:16:19;;;;;;;;;3.00;3.00;;;;;28.64;32.18;101667.34;4960840;28;45465;-74
2023/07/10 10:18:49;;;;;;;;;3.60;3.60;;;;;28.39;32.49;101619.38;4959780;28;45322;-75
2023/07/10 10:21:18;;;;;;;;;1.20;1.20;;;;;29.09;31.98;101738.38;4959892;28;45441;-77
2023/07/10 10:23:48;;;;;;;;;3.00;2.20;;;;;28.77;31.60;101674.69;4958746;28;45371;-74
2023/07/10 10:26:28;;;;;;;;;2.20;2.00;;;;;29.09;31.19;101722.19;4960590;28;46377;-74
2023/07/10 10:29:27;;;;;;;;;4.20;2.40;;;;;29.26;31.18;101736.47;4961629;28;45380;-77
2023/07/10 10:32:00;;;;;;;;;3.00;2.00;;;;;29.35;31.15;101722.41;4960379;28;45455;-78
2023/07/10 10:34:33;;;;;;;;;2.60;2.00;;;;;29.49;30.72;101718.84;4960900;28;45435;-75
2023/07/10 10:37:17;;;;;;;;;1.20;1.20;;;;;29.52;30.72;101721.34;4964510;28;45424;-77
2023/07/10 10:39:53;;;;;;;;;2.00;2.00;;;;;29.63;31.48;101718.84;4969739;28;45691;-78
2023/07/10 10:42:50;;;;;;;;;1.80;1.80;;;;;29.34;30.55;101720.69;4969827;28;44773;-78
2023/07/10 10:45:24;;;;;;;;;1.60;1.60;;;;;29.36;30.94;101711.53;4965750;28;45543;-76
2023/07/10 10:48:10;;;;;;;;;3.00;2.00;;;;;29.54;30.77;101717.63;4965324;28;45293;-78
2023/07/10 10:51:04;;;;;;;;;3.80;2.40;;;;;29.61;29.41;101723.47;4964304;28;45348;-76
2023/07/10 10:53:52;;;;;;;;;1.20;1.20;;;;;29.55;29.58;101689.66;4978126;28;45523;-79
2023/07/10 10:56:31;;;;;;;;;2.00;2.00;;;;;29.80;29.18;101725.91;4962590;28;45503;-78
2023/07/10 10:59:41;;;;;;;;;3.20;1.00;;;;;29.90;30.07;101721.69;4962115;28;45490;-76
2023/07/10 11:02:42;;;;;;;;;2.00;1.20;;;;;30.01;30.06;101705.63;4968262;28;45356;-77
2023/07/10 11:05:38;;;;;;;;;2.00;2.00;;;;;30.11;30.22;101705.03;4965694;28;45270;-76
2023/07/10 11:08:15;;;;;;;;;2.60;2.60;;;;;30.20;29.91;101709.84;4960485;28;45381;-75
2023/07/10 11:10:44;;;;;;;;;1.60;1.60;;;;;29.69;30.01;101620.47;4964169;28;45740;-76
2023/07/10 11:13:37;;;;;;;;;2.00;2.00;;;;;30.29;30.72;101713.81;4964649;28;45767;-76
2023/07/10 11:16:06;;;;;;;;;3.20;2.00;;;;;30.17;30.08;101678.50;4967575;28;45479;-76
2023/07/10 11:18:34;;;;;;;;;2.00;1.80;;;;;29.78;30.42;101619.84;4965400;28;45489;-76
2023/07/10 11:21:02;;;;;;;;;4.00;3.00;;;;;30.04;30.11;101650.56;4963404;28;45659;-80
2023/07/10 11:23:46;;;;;;;;;3.80;2.60;;;;;30.11;29.74;101661.81;4965872;28;45360;-78
2023/07/10 11:26:23;;;;;;;;;131.00;113.50;;;;;30.46;29.70;101708.16;4969544;28;45318;-75
2023/07/10 11:28:58;;;;;;;;;304.50;269.00;;;;;30.55;28.51;101699.44;4972556;28;45500;-78
2023/07/10 11:31:36;;;;;;;;;33.33;30.33;;;;;30.49;28.68;101680.06;4966910;28;45679;-75
2023/07/10 11:34:05;;;;;;;;;20.25;19.75;;;;;30.36;28.87;101685.44;4963807;28;45332;-76